Time;durP1;ratioP1;P1;durP2;ratioP2;P2;SDS_P1;SDS_P2;PMS_P1;PMS_P2;Temp;Humidity;BMP_temperature;BMP_pressure;BME280_temperature;BME280_humidity;BME280_pressure;Samples;Min_cycle;Max_cycle;Signal;HPM_P1;HPM_P2
2023/08/23 00:01:43;;;;;;;2.40;1.73;;;26.70;62.10;;;;;;6173310;23;20395;-68
2023/08/23 00:04:11;;;;;;;2.23;2.03;;;26.70;62.00;;;;;;6172233;23;20401;-69
2023/08/23 00:06:39;;;;;;;1.70;1.60;;;26.70;62.10;;;;;;6170334;23;20902;-68
2023/08/23 00:09:08;;;;;;;1.90;1.73;;;26.70;62.10;;;;;;6172381;23;20404;-68
2023/08/23 00:11:37;;;;;;;2.67;1.80;;;26.70;62.10;;;;;;6173421;23;20404;-69
2023/08/23 00:14:06;;;;;;;2.00;1.90;;;26.70;62.00;;;;;;6169855;23;20415;-69
2023/08/23 00:16:34;;;;;;;2.40;1.90;;;26.70;62.10;;;;;;6171355;23;20473;-69
2023/08/23 00:19:03;;;;;;;1.70;1.60;;;26.70;62.10;;;;;;6172139;23;20444;-68
2023/08/23 00:21:31;;;;;;;4.33;1.37;;;26.70;62.10;;;;;;6172141;23;20393;-69
2023/08/23 00:24:00;;;;;;;3.47;1.70;;;26.70;62.10;;;;;;6169743;23;20428;-69
2023/08/23 00:26:28;;;;;;;1.83;1.70;;;26.70;62.20;;;;;;6171696;23;20798;-68
2023/08/23 00:28:58;;;;;;;1.50;1.40;;;26.70;62.10;;;;;;6171395;22;20721;-68
2023/08/23 00:31:26;;;;;;;1.83;1.63;;;26.60;62.10;;;;;;6171028;23;20866;-69
2023/08/23 00:33:54;;;;;;;4.03;1.60;;;26.70;62.10;;;;;;6170402;23;20432;-69
2023/08/23 00:36:23;;;;;;;2.80;1.70;;;26.70;62.10;;;;;;6170633;23;20413;-68
2023/08/23 00:38:51;;;;;;;2.03;1.47;;;26.70;62.20;;;;;;6170740;23;20433;-69
2023/08/23 00:41:20;;;;;;;1.83;1.50;;;26.70;62.20;;;;;;6173075;23;20979;-69
2023/08/23 00:43:48;;;;;;;2.07;1.87;;;26.70;62.20;;;;;;6170344;23;20946;-69
2023/08/23 00:46:19;;;;;;;2.23;1.60;;;26.60;62.10;;;;;;6171775;23;20369;-69
2023/08/23 00:48:49;;;;;;;1.60;1.50;;;26.60;62.10;;;;;;6171489;23;20441;-69
2023/08/23 00:51:19;;;;;;;2.50;1.73;;;26.60;62.10;;;;;;6171573;23;20712;-69
2023/08/23 00:53:48;;;;;;;1.67;1.57;;;26.60;62.10;;;;;;6171125;23;20944;-69
2023/08/23 00:56:16;;;;;;;1.70;1.60;;;26.60;62.10;;;;;;6172315;23;20918;-68
2023/08/23 00:58:46;;;;;;;2.00;1.57;;;26.60;62.10;;;;;;6171427;23;20482;-68
2023/08/23 01:01:14;;;;;;;1.60;1.50;;;26.60;62.10;;;;;;6171766;23;20419;-69
2023/08/23 01:03:44;;;;;;;1.93;1.57;;;26.60;62.20;;;;;;6170144;23;20946;-68
2023/08/23 01:06:36;;;;;;;1.80;1.37;;;26.60;62.10;;;;;;6170729;23;20389;-69
2023/08/23 01:09:15;;;;;;;1.50;1.40;;;26.60;62.10;;;;;;6171793;23;20898;-70
2023/08/23 01:11:52;;;;;;;2.13;1.83;;;26.60;62.20;;;;;;6171993;23;20365;-70
2023/08/23 01:14:26;;;;;;;1.93;1.70;;;26.60;62.10;;;;;;6170844;23;20404;-69
2023/08/23 01:16:55;;;;;;;3.53;1.40;;;26.60;62.10;;;;;;6170845;23;20432;-69
2023/08/23 01:19:39;;;;;;;1.90;1.80;;;26.60;62.20;;;;;;6171148;23;20462;-69
2023/08/23 01:22:10;;;;;;;1.60;1.33;;;26.60;62.10;;;;;;6173120;23;20499;-69
2023/08/23 01:24:41;;;;;;;1.80;1.60;;;26.60;62.20;;;;;;6171514;23;20395;-69
2023/08/23 01:27:10;;;;;;;1.97;1.80;;;26.60;62.30;;;;;;6172141;23;20440;-70
2023/08/23 01:29:38;;;;;;;2.50;1.83;;;26.50;62.10;;;;;;6170780;23;20504;-70
2023/08/23 01:32:18;;;;;;;1.80;1.40;;;26.60;62.20;;;;;;6172226;23;20401;-69
2023/08/23 01:34:52;;;;;;;1.93;1.50;;;26.60;62.10;;;;;;6169795;23;20365;-69
2023/08/23 01:37:23;;;;;;;2.20;1.30;;;26.60;62.30;;;;;;6170109;23;20865;-69
2023/08/23 01:39:55;;;;;;;2.10;1.47;;;26.50;62.10;;;;;;6171260;23;20373;-69
2023/08/23 01:42:24;;;;;;;3.13;1.90;;;26.50;62.20;;;;;;6172114;23;20385;-69
2023/08/23 01:44:52;;;;;;;3.07;1.13;;;26.50;62.20;;;;;;6170622;23;20745;-69
2023/08/23 01:47:21;;;;;;;2.30;1.53;;;26.50;62.30;;;;;;6169825;23;20570;-69
2023/08/23 01:49:49;;;;;;;2.50;1.57;;;26.50;62.10;;;;;;6170335;23;20393;-69
2023/08/23 01:52:18;;;;;;;1.57;1.43;;;26.50;62.20;;;;;;6171534;23;20416;-70
2023/08/23 01:54:46;;;;;;;2.40;1.60;;;26.50;62.20;;;;;;6170967;23;20393;-69
2023/08/23 01:57:16;;;;;;;1.60;1.40;;;26.50;62.20;;;;;;6170526;23;20444;-69
2023/08/23 01:59:46;;;;;;;2.60;1.63;;;26.50;62.20;;;;;;6170596;23;20384;-70
2023/08/23 02:02:14;;;;;;;3.33;2.00;;;26.50;62.20;;;;;;6173430;23;20420;-69
2023/08/23 02:04:43;;;;;;;2.70;1.83;;;26.50;62.20;;;;;;6173630;23;20416;-69
2023/08/23 02:07:11;;;;;;;1.60;1.50;;;26.50;62.20;;;;;;6174117;23;20970;-70
2023/08/23 02:09:39;;;;;;;2.03;1.47;;;26.50;62.20;;;;;;6175437;23;20393;-69
2023/08/23 02:12:09;;;;;;;1.30;1.20;;;26.50;62.20;;;;;;6174525;23;20913;-70
2023/08/23 02:14:39;;;;;;;2.10;1.60;;;26.50;62.10;;;;;;6173146;23;20494;-70
2023/08/23 02:17:07;;;;;;;1.60;1.50;;;26.40;62.10;;;;;;6173462;23;20432;-70
2023/08/23 02:19:35;;;;;;;1.60;1.27;;;26.40;62.10;;;;;;6174407;23;20401;-68
2023/08/23 02:22:04;;;;;;;1.70;1.60;;;26.40;62.10;;;;;;6174764;23;20401;-69
2023/08/23 02:24:32;;;;;;;1.90;1.23;;;26.40;62.10;;;;;;6174158;23;20720;-69
2023/08/23 02:27:01;;;;;;;1.63;1.53;;;26.40;62.10;;;;;;6173632;23;20451;-69
2023/08/23 02:29:29;;;;;;;1.20;1.10;;;26.40;62.10;;;;;;6175371;23;20392;-69
2023/08/23 02:31:59;;;;;;;1.70;1.60;;;26.40;62.00;;;;;;6173575;23;20392;-70
2023/08/23 02:34:27;;;;;;;1.63;1.40;;;26.40;62.00;;;;;;6174203;23;20391;-70
2023/08/23 02:36:55;;;;;;;2.50;1.47;;;26.40;62.00;;;;;;6173202;23;20432;-70
2023/08/23 02:39:24;;;;;;;1.40;1.10;;;26.40;62.00;;;;;;6175585;23;20393;-69
2023/08/23 02:41:52;;;;;;;1.20;1.10;;;26.40;62.00;;;;;;6173181;23;20472;-69
2023/08/23 02:44:21;;;;;;;1.60;1.30;;;26.40;62.00;;;;;;6173106;23;20992;-69
2023/08/23 02:46:49;;;;;;;1.70;1.60;;;26.40;62.00;;;;;;6174452;23;20409;-69
2023/08/23 02:49:19;;;;;;;1.30;1.20;;;26.40;62.10;;;;;;6174700;23;20389;-69
2023/08/23 02:51:48;;;;;;;1.83;1.40;;;26.40;62.00;;;;;;6172192;23;20392;-69
2023/08/23 02:54:16;;;;;;;1.63;1.20;;;26.40;62.00;;;;;;6174106;23;20835;-69
2023/08/23 02:56:45;;;;;;;1.90;1.80;;;26.40;61.90;;;;;;6174933;23;20416;-69
2023/08/23 02:59:13;;;;;;;1.40;1.30;;;26.40;62.00;;;;;;6176034;23;20411;-69
2023/08/23 03:01:42;;;;;;;1.30;1.20;;;26.40;61.90;;;;;;6176031;23;20397;-69
2023/08/23 03:04:10;;;;;;;1.77;1.20;;;26.30;61.80;;;;;;6170752;23;20628;-67
2023/08/23 03:06:59;;;;;;;3.07;1.40;;;26.40;62.00;;;;;;6171651;23;20400;-69
2023/08/23 03:09:46;;;;;;;2.07;1.27;;;26.30;62.00;;;;;;6172319;23;20450;-69
2023/08/23 03:12:14;;;;;;;1.70;1.60;;;26.30;61.90;;;;;;6171497;23;20403;-69
2023/08/23 03:14:42;;;;;;;2.17;1.30;;;26.30;61.90;;;;;;6170677;23;20723;-69
2023/08/23 03:17:11;;;;;;;2.07;1.30;;;26.30;62.00;;;;;;6170423;23;20948;-69
2023/08/23 03:19:39;;;;;;;1.20;1.10;;;26.30;63.40;;;;;;6172230;23;20713;-69
2023/08/23 03:22:09;;;;;;;2.00;1.50;;;26.30;62.00;;;;;;6170198;23;20432;-69
2023/08/23 03:24:37;;;;;;;2.53;1.63;;;26.30;62.00;;;;;;6170916;23;20404;-69
2023/08/23 03:27:06;;;;;;;1.50;1.17;;;26.30;62.10;;;;;;6170530;23;20425;-69
2023/08/23 03:29:35;;;;;;;1.27;1.17;;;26.30;62.00;;;;;;6170182;23;20389;-69
2023/08/23 03:32:04;;;;;;;1.63;1.30;;;26.30;62.10;;;;;;6171399;23;20744;-69
2023/08/23 03:34:32;;;;;;;1.70;0.80;;;26.30;62.10;;;;;;6172176;23;20885;-70
2023/08/23 03:37:01;;;;;;;1.90;1.40;;;26.20;62.10;;;;;;6172157;23;20856;-70
2023/08/23 03:39:30;;;;;;;1.10;1.00;;;26.20;62.10;;;;;;6172055;23;20428;-70
2023/08/23 03:41:59;;;;;;;2.10;1.43;;;26.20;62.10;;;;;;6171655;23;20474;-69
2023/08/23 03:44:27;;;;;;;1.50;1.40;;;26.20;62.10;;;;;;6171768;23;20476;-69
2023/08/23 03:46:57;;;;;;;1.97;1.37;;;26.20;62.00;;;;;;6172386;23;20915;-69
2023/08/23 03:49:26;;;;;;;2.60;1.70;;;26.20;62.20;;;;;;6172152;23;20377;-69
2023/08/23 03:51:57;;;;;;;3.00;1.40;;;26.20;62.10;;;;;;6170595;23;20864;-69
2023/08/23 03:54:26;;;;;;;1.60;1.30;;;26.20;62.00;;;;;;6171686;23;20412;-69
2023/08/23 03:56:56;;;;;;;1.40;1.30;;;26.20;62.10;;;;;;6171992;23;20968;-69
2023/08/23 03:59:24;;;;;;;1.33;1.20;;;26.20;62.20;;;;;;6172113;23;20435;-69
2023/08/23 04:01:52;;;;;;;1.40;1.17;;;26.20;62.10;;;;;;6172157;23;20405;-69
2023/08/23 04:04:40;;;;;;;1.77;1.47;;;26.20;62.10;;;;;;6171731;23;20369;-70
2023/08/23 04:07:10;;;;;;;1.60;1.30;;;26.20;62.10;;;;;;6171646;23;20432;-70
2023/08/23 04:09:40;;;;;;;2.83;1.60;;;26.20;62.30;;;;;;6173092;23;20420;-70
2023/08/23 04:12:10;;;;;;;1.67;1.57;;;26.10;62.10;;;;;;6173280;23;20454;-70
2023/08/23 04:14:39;;;;;;;1.30;1.20;;;26.10;62.10;;;;;;6171877;23;20385;-69
2023/08/23 04:17:08;;;;;;;1.87;1.30;;;26.10;62.00;;;;;;6171010;23;20436;-69
2023/08/23 04:19:37;;;;;;;2.10;1.50;;;26.10;62.00;;;;;;6171837;23;20417;-68
2023/08/23 04:22:06;;;;;;;1.33;1.23;;;26.10;62.00;;;;;;6171768;23;20400;-69
2023/08/23 04:24:34;;;;;;;2.70;1.40;;;26.10;62.10;;;;;;6171963;23;20424;-69
2023/08/23 04:27:04;;;;;;;1.20;1.10;;;26.10;62.10;;;;;;6170977;23;20428;-69
2023/08/23 04:29:35;;;;;;;1.80;1.47;;;26.10;62.10;;;;;;6171833;23;20385;-69
2023/08/23 04:32:09;;;;;;;1.30;1.20;;;26.10;62.30;;;;;;6171506;23;20450;-69
2023/08/23 04:34:39;;;;;;;1.53;1.30;;;26.10;62.20;;;;;;6170603;23;20431;-69
2023/08/23 04:37:07;;;;;;;2.20;1.27;;;26.00;62.00;;;;;;6170934;23;20424;-69
2023/08/23 04:39:35;;;;;;;3.13;1.70;;;26.00;62.20;;;;;;6171318;23;20475;-69
2023/08/23 04:42:04;;;;;;;1.30;1.17;;;26.00;62.10;;;;;;6170459;23;20431;-68
2023/08/23 04:44:34;;;;;;;1.63;1.50;;;26.00;62.00;;;;;;6170543;23;20937;-68
2023/08/23 04:47:03;;;;;;;1.50;1.30;;;26.00;62.00;;;;;;6171798;23;20438;-69
2023/08/23 04:49:32;;;;;;;1.33;1.17;;;26.00;62.10;;;;;;6172522;23;20544;-69
2023/08/23 04:52:00;;;;;;;1.70;1.60;;;26.00;62.10;;;;;;6171795;23;20401;-69
2023/08/23 04:54:29;;;;;;;1.17;1.03;;;26.00;62.10;;;;;;6171619;23;20412;-70
2023/08/23 04:56:57;;;;;;;1.77;1.23;;;26.00;62.40;;;;;;6172328;23;20413;-69
2023/08/23 04:59:26;;;;;;;3.30;1.50;;;26.00;62.20;;;;;;6171377;23;20542;-69
2023/08/23 05:01:56;;;;;;;1.33;1.20;;;26.00;62.20;;;;;;6172058;23;20407;-69
2023/08/23 05:04:25;;;;;;;2.00;1.50;;;26.00;62.10;;;;;;6171970;23;20923;-69
2023/08/23 05:06:55;;;;;;;1.30;1.13;;;26.00;62.10;;;;;;6170749;23;20444;-69
2023/08/23 05:09:23;;;;;;;1.63;1.20;;;26.00;62.20;;;;;;6171677;23;20385;-69
2023/08/23 05:11:51;;;;;;;1.83;1.30;;;26.00;62.20;;;;;;6171655;23;20401;-69
2023/08/23 05:14:21;;;;;;;1.40;1.27;;;26.00;62.30;;;;;;6170822;23;20932;-69
2023/08/23 05:16:50;;;;;;;2.00;1.33;;;26.00;62.40;;;;;;6171893;23;20413;-69
2023/08/23 05:19:19;;;;;;;1.40;1.20;;;26.00;62.30;;;;;;6172122;23;20814;-69
2023/08/23 05:21:48;;;;;;;1.50;1.40;;;25.90;62.10;;;;;;6171060;23;20427;-69
2023/08/23 05:24:16;;;;;;;1.70;1.27;;;25.90;62.20;;;;;;6172842;23;20716;-69
2023/08/23 05:26:45;;;;;;;1.40;1.30;;;25.90;62.40;;;;;;6171044;23;20441;-70
2023/08/23 05:29:13;;;;;;;2.07;1.30;;;25.90;62.50;;;;;;6171455;23;20420;-68
2023/08/23 05:31:42;;;;;;;1.50;1.33;;;25.90;62.50;;;;;;6170724;23;20408;-69
2023/08/23 05:34:11;;;;;;;1.70;1.20;;;25.90;62.70;;;;;;6170222;23;20427;-70
2023/08/23 05:36:40;;;;;;;1.53;1.20;;;25.90;62.60;;;;;;6171299;23;20862;-68
2023/08/23 05:39:11;;;;;;;2.33;1.40;;;25.90;62.60;;;;;;6170793;23;20441;-69
2023/08/23 05:41:39;;;;;;;1.23;1.10;;;25.90;62.70;;;;;;6171187;23;20389;-69
2023/08/23 05:44:08;;;;;;;2.30;1.50;;;25.90;62.70;;;;;;6169696;23;20409;-69
2023/08/23 05:46:37;;;;;;;1.33;1.03;;;25.90;62.50;;;;;;6171745;23;20489;-69
2023/08/23 05:49:05;;;;;;;2.60;1.40;;;25.90;62.60;;;;;;6172044;23;20425;-69
2023/08/23 05:51:33;;;;;;;2.33;1.70;;;25.80;62.50;;;;;;6169860;23;20389;-70
2023/08/23 05:54:03;;;;;;;1.20;1.00;;;25.80;62.60;;;;;;6169548;23;20490;-69
2023/08/23 05:56:31;;;;;;;1.30;1.20;;;25.80;62.60;;;;;;6172983;23;20412;-69
2023/08/23 05:59:00;;;;;;;0.80;0.80;;;25.80;62.70;;;;;;6170204;23;20444;-69
2023/08/23 06:01:28;;;;;;;1.53;1.43;;;25.80;63.00;;;;;;6170895;23;20397;-69
2023/08/23 06:03:56;;;;;;;2.70;1.30;;;25.80;62.80;;;;;;6171597;22;20469;-69
2023/08/23 06:06:25;;;;;;;1.30;1.20;;;25.80;62.70;;;;;;6171062;23;20392;-68
2023/08/23 06:08:53;;;;;;;1.60;1.40;;;25.80;62.90;;;;;;6171042;23;20494;-68
2023/08/23 06:11:26;;;;;;;1.40;1.30;;;25.80;62.70;;;;;;6146671;23;21025;-69
2023/08/23 06:13:56;;;;;;;1.40;1.17;;;25.80;63.00;;;;;;6169792;22;20432;-69
2023/08/23 06:16:25;;;;;;;1.53;1.43;;;25.80;63.00;;;;;;6172411;23;20867;-69
2023/08/23 06:18:53;;;;;;;4.80;1.60;;;25.80;63.00;;;;;;6170402;23;20519;-71
2023/08/23 06:21:21;;;;;;;3.40;2.10;;;25.80;62.80;;;;;;6170951;23;20411;-71
2023/08/23 06:23:50;;;;;;;3.00;1.80;;;25.70;64.20;;;;;;6171670;23;20428;-72
2023/08/23 06:26:18;;;;;;;3.20;2.80;;;25.70;62.50;;;;;;6171438;23;20396;-72
2023/08/23 06:28:48;;;;;;;2.70;2.50;;;25.60;61.80;;;;;;6169607;23;20437;-72
2023/08/23 06:31:20;;;;;;;3.70;2.60;;;25.60;61.50;;;;;;6171293;23;20413;-71
2023/08/23 06:33:49;;;;;;;4.77;2.60;;;25.50;61.20;;;;;;6170091;23;20440;-71
2023/08/23 06:36:17;;;;;;;3.30;3.00;;;25.50;60.50;;;;;;6170102;23;20391;-72
2023/08/23 06:38:46;;;;;;;5.43;3.50;;;25.50;60.40;;;;;;6169808;23;20768;-72
2023/08/23 06:41:15;;;;;;;5.10;3.77;;;25.50;59.90;;;;;;6171591;23;20389;-72
2023/08/23 06:43:46;;;;;;;6.67;4.40;;;25.50;59.70;;;;;;6168343;23;20443;-71
2023/08/23 06:46:16;;;;;;;6.50;4.03;;;25.50;59.20;;;;;;6170505;23;20373;-72
2023/08/23 06:48:44;;;;;;;5.30;3.60;;;25.60;59.20;;;;;;6169917;23;20429;-71
2023/08/23 06:51:13;;;;;;;5.03;3.53;;;25.60;58.80;;;;;;6171892;23;20387;-72
2023/08/23 06:53:42;;;;;;;4.00;3.10;;;25.70;58.70;;;;;;6170186;23;20771;-71
2023/08/23 06:56:12;;;;;;;5.63;3.27;;;25.70;58.30;;;;;;6170895;23;20913;-71
2023/08/23 06:58:40;;;;;;;5.90;3.63;;;25.80;58.10;;;;;;6170150;23;20436;-71
2023/08/23 07:01:14;;;;;;;8.93;3.40;;;25.80;58.00;;;;;;6170530;23;20424;-71
2023/08/23 07:03:45;;;;;;;6.40;3.67;;;25.80;59.20;;;;;;6170231;23;20432;-72
2023/08/23 07:06:15;;;;;;;4.30;3.70;;;25.90;58.10;;;;;;6171468;23;20403;-72
2023/08/23 07:08:44;;;;;;;4.73;3.27;;;25.90;58.00;;;;;;6172119;23;20511;-71
2023/08/23 07:11:12;;;;;;;5.03;3.37;;;25.90;57.90;;;;;;6172228;23;20887;-71
2023/08/23 07:13:41;;;;;;;8.30;4.00;;;25.90;57.30;;;;;;6170155;23;20436;-71
2023/08/23 07:16:09;;;;;;;4.90;3.37;;;25.80;56.90;;;;;;6173411;23;20736;-71
2023/08/23 07:18:38;;;;;;;6.03;4.60;;;25.90;57.30;;;;;;6171293;23;20469;-71
2023/08/23 07:21:09;;;;;;;6.53;4.23;;;25.90;57.00;;;;;;6170995;23;20922;-71
2023/08/23 07:23:37;;;;;;;7.67;4.80;;;25.90;57.10;;;;;;6170968;23;20432;-72
2023/08/23 07:26:09;;;;;;;5.33;3.70;;;25.90;57.00;;;;;;6172275;23;20393;-71
2023/08/23 07:28:37;;;;;;;6.00;4.10;;;25.90;56.70;;;;;;6171361;23;20436;-71
2023/08/23 07:31:06;;;;;;;8.70;4.20;;;25.90;56.90;;;;;;6172007;23;20521;-71
2023/08/23 07:33:34;;;;;;;5.80;3.67;;;25.90;56.50;;;;;;6170210;23;20482;-72
2023/08/23 07:36:03;;;;;;;5.07;3.10;;;25.80;56.40;;;;;;6171994;23;20442;-71
2023/08/23 07:38:33;;;;;;;4.13;3.60;;;25.80;56.90;;;;;;6170811;23;20432;-71
2023/08/23 07:41:04;;;;;;;3.23;2.37;;;25.90;56.70;;;;;;6171758;23;20434;-71
2023/08/23 07:43:32;;;;;;;7.00;3.10;;;25.90;56.50;;;;;;6170016;23;20436;-72
2023/08/23 07:46:03;;;;;;;6.93;5.30;;;25.80;56.40;;;;;;6173762;23;20964;-71
2023/08/23 07:48:31;;;;;;;6.33;2.90;;;25.90;56.40;;;;;;6172312;22;20946;-72
2023/08/23 07:51:00;;;;;;;6.67;3.33;;;25.80;56.40;;;;;;6170914;23;20400;-72
2023/08/23 07:53:29;;;;;;;7.00;3.03;;;25.80;56.30;;;;;;6170660;23;20625;-72
2023/08/23 07:55:59;;;;;;;3.13;2.80;;;25.80;56.20;;;;;;6170759;23;20373;-71
2023/08/23 07:58:27;;;;;;;3.37;2.90;;;25.80;56.20;;;;;;6170300;23;20437;-71
2023/08/23 08:00:56;;;;;;;8.00;2.30;;;25.80;55.70;;;;;;6173251;23;20474;-71
2023/08/23 08:03:28;;;;;;;6.13;2.60;;;25.70;55.90;;;;;;6170558;23;20647;-71
2023/08/23 08:05:56;;;;;;;3.10;2.43;;;25.70;55.90;;;;;;6172660;23;20385;-71
2023/08/23 08:08:25;;;;;;;3.17;2.87;;;25.70;56.30;;;;;;6170585;23;20425;-71
2023/08/23 08:10:53;;;;;;;6.70;2.47;;;25.70;55.50;;;;;;6173127;23;20412;-71
2023/08/23 08:13:23;;;;;;;4.10;2.27;;;25.70;55.50;;;;;;6169662;23;20689;-71
2023/08/23 08:15:52;;;;;;;5.63;2.03;;;25.60;56.20;;;;;;6172721;23;20377;-71
2023/08/23 08:18:21;;;;;;;6.47;2.93;;;25.60;55.80;;;;;;6171040;23;20729;-72
2023/08/23 08:20:50;;;;;;;4.67;3.70;;;25.60;55.50;;;;;;6170697;23;20432;-71
2023/08/23 08:23:18;;;;;;;6.97;4.37;;;25.50;56.10;;;;;;6170231;23;20436;-71
2023/08/23 08:25:47;;;;;;;6.40;4.47;;;25.50;56.30;;;;;;6172209;23;20408;-72
2023/08/23 08:28:16;;;;;;;5.80;3.73;;;25.50;56.40;;;;;;6171399;23;20435;-71
2023/08/23 08:30:46;;;;;;;7.40;4.40;;;25.50;56.40;;;;;;6171986;23;20435;-71
2023/08/23 08:33:14;;;;;;;8.50;5.10;;;25.50;56.20;;;;;;6171748;22;21001;-72
2023/08/23 08:35:43;;;;;;;9.53;6.83;;;25.50;57.10;;;;;;6168454;23;20879;-70
2023/08/23 08:38:11;;;;;;;7.50;5.23;;;25.50;55.30;;;;;;6171022;23;20491;-70
2023/08/23 08:40:40;;;;;;;6.10;4.77;;;25.50;56.30;;;;;;6172029;23;20484;-71
2023/08/23 08:43:09;;;;;;;6.33;4.93;;;25.70;56.20;;;;;;6169977;23;20499;-69
2023/08/23 08:45:38;;;;;;;6.67;4.10;;;25.60;56.00;;;;;;6169987;23;20447;-69
2023/08/23 08:48:08;;;;;;;9.83;5.30;;;25.50;56.70;;;;;;6169787;22;20764;-69
2023/08/23 08:50:38;;;;;;;9.37;4.07;;;25.50;56.20;;;;;;6170439;23;20385;-69
2023/08/23 08:53:07;;;;;;;6.93;4.63;;;25.60;56.50;;;;;;6167819;23;20812;-69
2023/08/23 08:55:36;;;;;;;6.10;4.40;;;25.60;56.70;;;;;;6171731;23;20457;-69
2023/08/23 08:58:07;;;;;;;5.53;3.87;;;25.60;56.70;;;;;;6168525;23;20433;-69
2023/08/23 09:00:37;;;;;;;4.90;4.40;;;25.60;57.00;;;;;;6170635;23;20481;-67
2023/08/23 09:03:06;;;;;;;8.13;4.47;;;25.60;57.20;;;;;;6167984;23;20441;-68
2023/08/23 09:05:36;;;;;;;4.63;3.60;;;25.60;57.20;;;;;;6166442;23;20411;-68
2023/08/23 09:08:06;;;;;;;4.30;3.77;;;25.60;57.40;;;;;;6168756;23;20999;-68
2023/08/23 09:10:34;;;;;;;9.10;4.57;;;25.60;57.60;;;;;;6171868;23;20391;-69
2023/08/23 09:13:03;;;;;;;7.90;4.23;;;25.70;58.10;;;;;;6167909;22;20433;-69
2023/08/23 09:15:32;;;;;;;4.13;3.73;;;25.70;58.10;;;;;;6170893;23;20397;-68
2023/08/23 09:18:00;;;;;;;6.60;4.07;;;25.70;58.10;;;;;;6172093;22;20440;-69
2023/08/23 09:20:29;;;;;;;5.00;3.50;;;25.70;58.20;;;;;;6170805;23;20973;-68
2023/08/23 09:22:58;;;;;;;7.40;4.47;;;25.70;58.40;;;;;;6169976;23;20428;-71
2023/08/23 09:25:30;;;;;;;7.50;4.27;;;25.70;58.30;;;;;;6171848;23;20397;-68
2023/08/23 09:27:58;;;;;;;4.27;3.87;;;25.80;58.60;;;;;;6170141;23;20486;-69
2023/08/23 09:30:28;;;;;;;4.60;4.20;;;25.80;58.60;;;;;;6173158;23;20432;-69
2023/08/23 09:32:58;;;;;;;5.57;3.70;;;25.80;59.90;;;;;;6169699;23;20444;-68
2023/08/23 09:35:27;;;;;;;7.10;3.70;;;25.80;58.70;;;;;;6171540;23;20484;-69
2023/08/23 09:37:55;;;;;;;3.70;3.30;;;25.80;58.80;;;;;;6170188;23;21035;-68
2023/08/23 09:40:27;;;;;;;3.90;3.17;;;25.80;58.60;;;;;;6171121;23;20461;-71
2023/08/23 09:42:56;;;;;;;6.13;4.03;;;25.80;58.90;;;;;;6169928;23;20436;-68
2023/08/23 09:45:28;;;;;;;5.80;3.30;;;25.80;58.80;;;;;;6172363;23;20794;-67
2023/08/23 09:47:59;;;;;;;4.77;3.43;;;25.80;58.90;;;;;;6171053;23;20436;-68
2023/08/23 09:50:28;;;;;;;4.73;3.40;;;25.80;59.00;;;;;;6171253;23;20392;-68
2023/08/23 09:53:05;;;;;;;3.70;3.40;;;25.80;59.10;;;;;;6170201;23;20881;-66
2023/08/23 09:55:35;;;;;;;5.73;3.50;;;25.80;59.20;;;;;;6172116;23;20384;-71
2023/08/23 09:58:04;;;;;;;4.43;3.70;;;25.90;58.40;;;;;;6169730;23;20440;-67
2023/08/23 10:00:34;;;;;;;3.80;3.33;;;26.00;57.00;;;;;;6172169;23;20767;-68
2023/08/23 10:03:03;;;;;;;4.50;3.30;;;26.00;57.30;;;;;;6170025;22;20447;-70
2023/08/23 10:05:35;;;;;;;4.83;3.67;;;25.90;57.60;;;;;;6171241;23;20753;-68
2023/08/23 10:08:04;;;;;;;6.60;3.40;;;25.80;57.90;;;;;;6171594;22;20489;-68
2023/08/23 10:10:35;;;;;;;4.43;3.40;;;25.80;58.20;;;;;;6171637;23;20389;-69
2023/08/23 10:13:06;;;;;;;3.43;3.13;;;25.80;58.30;;;;;;6169965;23;20481;-69
2023/08/23 10:15:38;;;;;;;2.90;2.70;;;25.80;58.40;;;;;;6169212;23;20721;-67
2023/08/23 10:18:09;;;;;;;7.53;3.37;;;25.80;58.70;;;;;;6170471;23;20815;-68
2023/08/23 10:20:38;;;;;;;4.47;2.90;;;25.80;58.90;;;;;;6171755;23;20411;-69
2023/08/23 10:23:12;;;;;;;5.13;3.20;;;25.80;59.00;;;;;;6169813;23;20436;-69
2023/08/23 10:25:44;;;;;;;3.50;3.00;;;25.70;59.10;;;;;;6171370;23;20380;-69
2023/08/23 10:28:15;;;;;;;5.60;3.17;;;25.70;59.30;;;;;;6171318;22;20670;-69
2023/08/23 10:30:44;;;;;;;2.90;2.70;;;25.70;59.30;;;;;;6171027;23;20396;-68
2023/08/23 10:33:15;;;;;;;4.00;2.90;;;25.70;59.30;;;;;;6169204;23;20416;-71
2023/08/23 10:35:45;;;;;;;3.73;3.10;;;25.70;59.40;;;;;;6171217;23;20385;-72
2023/08/23 10:38:13;;;;;;;3.00;2.67;;;25.70;58.40;;;;;;6169351;23;20467;-72
2023/08/23 10:40:45;;;;;;;2.80;2.60;;;25.70;59.60;;;;;;6173452;23;20393;-71
2023/08/23 10:43:15;;;;;;;4.87;3.20;;;25.70;59.50;;;;;;6169953;23;20874;-73
2023/08/23 10:45:53;;;;;;;8.40;3.30;;;25.70;59.80;;;;;;6172435;23;20396;-72
2023/08/23 10:48:23;;;;;;;5.80;2.97;;;25.80;59.00;;;;;;6170070;23;20443;-72
2023/08/23 10:50:53;;;;;;;5.23;2.80;;;25.90;59.00;;;;;;6170752;23;20915;-72
2023/08/23 10:53:22;;;;;;;2.70;2.30;;;25.80;59.10;;;;;;6171005;23;20428;-73
2023/08/23 10:55:57;;;;;;;3.20;2.47;;;25.80;59.40;;;;;;6172483;23;20385;-71
2023/08/23 10:58:25;;;;;;;3.43;2.60;;;25.80;59.60;;;;;;6170817;23;20432;-73
2023/08/23 11:00:54;;;;;;;5.00;3.07;;;25.80;59.70;;;;;;6172459;23;20431;-71
2023/08/23 11:03:24;;;;;;;3.03;2.40;;;25.80;60.00;;;;;;6172390;22;20425;-72
2023/08/23 11:05:53;;;;;;;2.97;2.60;;;25.80;59.90;;;;;;6170615;23;20389;-72
2023/08/23 11:08:22;;;;;;;4.23;2.80;;;25.80;59.80;;;;;;6170740;23;20439;-72
2023/08/23 11:10:50;;;;;;;3.97;2.27;;;25.80;59.80;;;;;;6173605;23;20379;-72
2023/08/23 11:13:20;;;;;;;2.73;2.53;;;25.80;59.90;;;;;;6171377;23;20436;-71
2023/08/23 11:15:49;;;;;;;3.50;2.50;;;25.80;60.00;;;;;;6171050;23;21015;-72
2023/08/23 11:18:17;;;;;;;3.20;2.90;;;25.80;59.80;;;;;;6173128;22;20433;-71
2023/08/23 11:20:47;;;;;;;5.07;2.60;;;25.80;60.00;;;;;;6172801;23;20439;-72
2023/08/23 11:23:15;;;;;;;2.93;2.63;;;25.80;60.00;;;;;;6170845;23;20440;-72
2023/08/23 11:25:44;;;;;;;3.23;2.47;;;25.80;60.00;;;;;;6173861;23;20397;-72
2023/08/23 11:28:15;;;;;;;3.03;2.73;;;25.80;60.00;;;;;;6171982;22;20447;-72
2023/08/23 11:30:47;;;;;;;2.53;2.30;;;25.80;60.10;;;;;;6172058;23;20468;-72
2023/08/23 11:33:16;;;;;;;3.47;2.27;;;25.80;60.20;;;;;;6170748;23;20444;-71
2023/08/23 11:35:45;;;;;;;2.77;2.40;;;25.80;60.00;;;;;;6171326;23;20397;-72
2023/08/23 11:38:14;;;;;;;3.10;2.80;;;25.80;60.30;;;;;;6172599;22;20447;-72
2023/08/23 11:40:45;;;;;;;2.77;2.30;;;25.80;60.10;;;;;;6172112;23;20400;-72
2023/08/23 11:43:18;;;;;;;2.70;2.40;;;25.80;59.90;;;;;;6171276;23;20436;-72
2023/08/23 11:45:52;;;;;;;3.60;2.20;;;25.80;59.90;;;;;;6171900;23;20413;-72
2023/08/23 11:48:23;;;;;;;3.87;2.33;;;25.80;60.10;;;;;;6171615;23;20437;-70
2023/08/23 11:50:53;;;;;;;3.20;2.57;;;25.80;60.00;;;;;;6171234;23;20395;-72
2023/08/23 11:53:21;;;;;;;3.63;2.60;;;25.80;60.20;;;;;;6172590;22;20976;-72
2023/08/23 11:55:51;;;;;;;5.23;2.63;;;25.80;60.10;;;;;;6173166;23;20385;-71
2023/08/23 11:58:19;;;;;;;3.33;2.20;;;25.80;60.20;;;;;;6171248;23;20436;-71
2023/08/23 12:00:48;;;;;;;3.13;2.83;;;25.80;60.10;;;;;;6173799;23;20723;-72
2023/08/23 12:03:18;;;;;;;3.77;3.40;;;25.80;60.00;;;;;;6172528;23;20460;-72
2023/08/23 12:05:47;;;;;;;2.93;2.30;;;25.90;59.90;;;;;;6170709;23;20969;-72
2023/08/23 12:08:15;;;;;;;3.90;2.50;;;25.90;60.10;;;;;;6171011;23;20436;-72
2023/08/23 12:10:44;;;;;;;3.37;2.73;;;25.90;60.20;;;;;;6172086;23;20737;-72
2023/08/23 12:13:12;;;;;;;3.60;2.30;;;25.90;60.30;;;;;;6171378;22;20824;-72
2023/08/23 12:15:40;;;;;;;3.97;2.50;;;25.90;60.10;;;;;;6173452;23;20416;-72
2023/08/23 12:18:09;;;;;;;2.90;2.57;;;25.90;60.40;;;;;;6170933;23;20437;-72
2023/08/23 12:20:39;;;;;;;3.77;2.20;;;25.90;60.20;;;;;;6170273;23;20947;-72
2023/08/23 12:23:07;;;;;;;2.43;2.17;;;25.90;60.30;;;;;;6171785;22;20444;-72
2023/08/23 12:25:36;;;;;;;4.20;3.23;;;25.90;60.30;;;;;;6171868;23;20423;-71
2023/08/23 12:28:04;;;;;;;5.97;3.27;;;25.90;60.00;;;;;;6172277;22;20444;-72
2023/08/23 12:30:33;;;;;;;2.87;2.57;;;25.90;59.90;;;;;;6171509;23;20414;-71
2023/08/23 12:33:01;;;;;;;2.70;2.50;;;25.90;60.00;;;;;;6170217;23;20485;-72
2023/08/23 12:35:30;;;;;;;4.20;2.83;;;25.90;60.10;;;;;;6170898;23;20930;-72
2023/08/23 12:38:00;;;;;;;3.47;3.07;;;25.90;60.30;;;;;;6172581;22;20445;-72
2023/08/23 12:40:29;;;;;;;2.80;2.47;;;25.90;60.30;;;;;;6173354;23;20824;-72
2023/08/23 12:42:57;;;;;;;2.87;2.67;;;25.90;60.50;;;;;;6170275;23;20816;-71
2023/08/23 12:45:25;;;;;;;3.27;2.57;;;25.90;60.30;;;;;;6171058;23;20513;-71
2023/08/23 12:47:54;;;;;;;2.60;2.40;;;25.90;60.20;;;;;;6170041;23;20440;-72
2023/08/23 12:50:26;;;;;;;2.93;2.10;;;25.90;60.50;;;;;;6171771;23;20377;-71
2023/08/23 12:52:54;;;;;;;2.80;2.43;;;25.90;60.20;;;;;;6170739;23;20490;-72
2023/08/23 12:55:24;;;;;;;2.50;2.30;;;25.90;60.30;;;;;;6172144;23;20396;-72
2023/08/23 12:57:52;;;;;;;2.87;2.60;;;25.90;60.30;;;;;;6170795;23;20448;-72
2023/08/23 13:00:21;;;;;;;2.53;2.33;;;25.90;60.30;;;;;;6171606;23;20405;-71